sensor_id;sensor_type;location;lat;lon;timestamp;temperature;humidity
19025;DHT22;9645;51.448;6.260;2023-03-23T00:01:28;12.60;99.90
19025;DHT22;9645;51.448;6.260;2023-03-23T00:03:57;12.60;99.90
19025;DHT22;9645;51.448;6.260;2023-03-23T00:06:27;12.60;99.90
19025;DHT22;9645;51.448;6.260;2023-03-23T00:09:00;12.60;99.90
19025;DHT22;9645;51.448;6.260;2023-03-23T00:11:30;12.60;99.90
19025;DHT22;9645;51.448;6.260;2023-03-23T00:13:58;12.50;99.90
19025;DHT22;9645;51.448;6.260;2023-03-23T00:16:28;12.50;99.90
19025;DHT22;9645;51.448;6.260;2023-03-23T00:18:57;12.60;99.90
19025;DHT22;9645;51.448;6.260;2023-03-23T00:21:27;12.60;99.90
19025;DHT22;9645;51.448;6.260;2023-03-23T00:24:01;12.60;99.90
19025;DHT22;9645;51.448;6.260;2023-03-23T00:26:28;12.60;99.90
19025;DHT22;9645;51.448;6.260;2023-03-23T00:28:59;12.60;99.90
19025;DHT22;9645;51.448;6.260;2023-03-23T00:31:27;12.60;99.90
19025;DHT22;9645;51.448;6.260;2023-03-23T00:33:57;12.60;99.90
19025;DHT22;9645;51.448;6.260;2023-03-23T00:36:28;12.60;99.90
19025;DHT22;9645;51.448;6.260;2023-03-23T00:38:55;12.60;99.90
19025;DHT22;9645;51.448;6.260;2023-03-23T00:41:25;12.60;99.90
19025;DHT22;9645;51.448;6.260;2023-03-23T00:43:54;12.60;99.90
19025;DHT22;9645;51.448;6.260;2023-03-23T00:46:22;12.70;99.90
19025;DHT22;9645;51.448;6.260;2023-03-23T00:48:49;12.70;99.90
19025;DHT22;9645;51.448;6.260;2023-03-23T00:51:16;12.70;99.90
19025;DHT22;9645;51.448;6.260;2023-03-23T00:53:46;12.70;99.90
19025;DHT22;9645;51.448;6.260;2023-03-23T00:56:13;12.70;99.90
19025;DHT22;9645;51.448;6.260;2023-03-23T00:58:41;12.70;99.90
19025;DHT22;9645;51.448;6.260;2023-03-23T01:01:09;12.10;99.90
19025;DHT22;9645;51.448;6.260;2023-03-23T01:03:36;12.70;99.90
19025;DHT22;9645;51.448;6.260;2023-03-23T01:06:09;12.70;99.90
19025;DHT22;9645;51.448;6.260;2023-03-23T01:08:39;12.70;99.90
19025;DHT22;9645;51.448;6.260;2023-03-23T01:11:13;12.80;99.90
19025;DHT22;9645;51.448;6.260;2023-03-23T01:13:40;12.70;99.90
19025;DHT22;9645;51.448;6.260;2023-03-23T01:16:07;12.80;99.90
19025;DHT22;9645;51.448;6.260;2023-03-23T01:18:35;13.00;99.90
19025;DHT22;9645;51.448;6.260;2023-03-23T01:21:04;12.80;99.90
19025;DHT22;9645;51.448;6.260;2023-03-23T01:23:32;12.80;99.90
19025;DHT22;9645;51.448;6.260;2023-03-23T01:26:03;12.80;99.90
19025;DHT22;9645;51.448;6.260;2023-03-23T01:28:31;12.70;99.90
19025;DHT22;9645;51.448;6.260;2023-03-23T01:31:03;12.70;99.90
19025;DHT22;9645;51.448;6.260;2023-03-23T01:33:30;12.70;99.90
19025;DHT22;9645;51.448;6.260;2023-03-23T01:35:58;12.70;99.90
19025;DHT22;9645;51.448;6.260;2023-03-23T01:38:25;12.70;99.90
19025;DHT22;9645;51.448;6.260;2023-03-23T01:40:52;12.70;99.90
19025;DHT22;9645;51.448;6.260;2023-03-23T01:43:19;12.70;99.90
19025;DHT22;9645;51.448;6.260;2023-03-23T01:45:47;12.70;99.90
19025;DHT22;9645;51.448;6.260;2023-03-23T01:48:18;12.70;99.90
19025;DHT22;9645;51.448;6.260;2023-03-23T01:50:53;12.70;99.90
19025;DHT22;9645;51.448;6.260;2023-03-23T01:53:22;12.70;99.90
19025;DHT22;9645;51.448;6.260;2023-03-23T01:55:52;12.70;99.90
19025;DHT22;9645;51.448;6.260;2023-03-23T01:58:23;12.70;99.90
19025;DHT22;9645;51.448;6.260;2023-03-23T02:00:55;12.70;99.90
19025;DHT22;9645;51.448;6.260;2023-03-23T02:03:25;12.60;99.90
19025;DHT22;9645;51.448;6.260;2023-03-23T02:05:52;12.70;99.90
19025;DHT22;9645;51.448;6.260;2023-03-23T02:08:19;12.70;99.90
19025;DHT22;9645;51.448;6.260;2023-03-23T02:10:46;12.70;99.90
19025;DHT22;9645;51.448;6.260;2023-03-23T02:13:13;12.70;99.90
19025;DHT22;9645;51.448;6.260;2023-03-23T02:15:48;12.70;99.90
19025;DHT22;9645;51.448;6.260;2023-03-23T02:24:47;12.70;99.90
19025;DHT22;9645;51.448;6.260;2023-03-23T02:27:37;12.60;99.90
19025;DHT22;9645;51.448;6.260;2023-03-23T02:30:19;12.60;99.90
19025;DHT22;9645;51.448;6.260;2023-03-23T02:35:52;12.60;99.90
19025;DHT22;9645;51.448;6.260;2023-03-23T02:38:23;12.60;99.90
19025;DHT22;9645;51.448;6.260;2023-03-23T02:40:54;12.60;99.90
19025;DHT22;9645;51.448;6.260;2023-03-23T02:43:25;12.60;99.90
19025;DHT22;9645;51.448;6.260;2023-03-23T02:45:54;12.60;99.90
19025;DHT22;9645;51.448;6.260;2023-03-23T02:48:25;12.60;99.90
19025;DHT22;9645;51.448;6.260;2023-03-23T02:50:57;12.60;99.90
19025;DHT22;9645;51.448;6.260;2023-03-23T02:53:26;12.60;99.90
19025;DHT22;9645;51.448;6.260;2023-03-23T02:55:56;12.60;99.90
19025;DHT22;9645;51.448;6.260;2023-03-23T02:58:25;12.60;99.90
19025;DHT22;9645;51.448;6.260;2023-03-23T03:00:54;12.60;99.90
19025;DHT22;9645;51.448;6.260;2023-03-23T03:03:24;12.50;99.90
19025;DHT22;9645;51.448;6.260;2023-03-23T03:06:02;12.50;99.90
19025;DHT22;9645;51.448;6.260;2023-03-23T03:08:37;12.50;99.90
19025;DHT22;9645;51.448;6.260;2023-03-23T03:11:08;11.00;99.90
19025;DHT22;9645;51.448;6.260;2023-03-23T03:13:43;12.50;99.90
19025;DHT22;9645;51.448;6.260;2023-03-23T03:16:19;12.50;99.90
19025;DHT22;9645;51.448;6.260;2023-03-23T03:18:51;12.50;99.90
19025;DHT22;9645;51.448;6.260;2023-03-23T03:21:21;12.50;99.90
19025;DHT22;9645;51.448;6.260;2023-03-23T03:23:53;12.40;99.90
19025;DHT22;9645;51.448;6.260;2023-03-23T03:26:22;12.40;99.90
19025;DHT22;9645;51.448;6.260;2023-03-23T03:28:53;12.40;99.90
19025;DHT22;9645;51.448;6.260;2023-03-23T03:31:22;12.40;99.90
19025;DHT22;9645;51.448;6.260;2023-03-23T03:33:50;12.40;99.90
19025;DHT22;9645;51.448;6.260;2023-03-23T03:36:22;12.40;99.90
19025;DHT22;9645;51.448;6.260;2023-03-23T03:38:51;12.40;99.90
19025;DHT22;9645;51.448;6.260;2023-03-23T03:41:19;12.50;99.90
19025;DHT22;9645;51.448;6.260;2023-03-23T03:43:46;12.50;99.90
19025;DHT22;9645;51.448;6.260;2023-03-23T03:46:13;12.50;99.90
19025;DHT22;9645;51.448;6.260;2023-03-23T03:48:40;12.60;99.90
19025;DHT22;9645;51.448;6.260;2023-03-23T03:51:07;12.60;99.90
19025;DHT22;9645;51.448;6.260;2023-03-23T03:53:35;12.60;99.90
19025;DHT22;9645;51.448;6.260;2023-03-23T03:56:03;12.50;99.90
19025;DHT22;9645;51.448;6.260;2023-03-23T03:58:31;12.50;99.90
19025;DHT22;9645;51.448;6.260;2023-03-23T04:00:58;12.60;99.90
19025;DHT22;9645;51.448;6.260;2023-03-23T04:03:26;12.60;99.90
19025;DHT22;9645;51.448;6.260;2023-03-23T04:05:54;12.60;99.90
19025;DHT22;9645;51.448;6.260;2023-03-23T04:08:22;12.60;99.90
19025;DHT22;9645;51.448;6.260;2023-03-23T04:10:50;12.60;99.90
19025;DHT22;9645;51.448;6.260;2023-03-23T04:13:17;12.60;99.90
19025;DHT22;9645;51.448;6.260;2023-03-23T04:15:45;12.60;99.90
19025;DHT22;9645;51.448;6.260;2023-03-23T04:18:13;12.60;99.90
19025;DHT22;9645;51.448;6.260;2023-03-23T04:20:43;12.60;99.90
19025;DHT22;9645;51.448;6.260;2023-03-23T04:23:12;12.60;99.90
19025;DHT22;9645;51.448;6.260;2023-03-23T04:25:39;12.50;99.90
19025;DHT22;9645;51.448;6.260;2023-03-23T04:28:09;12.50;99.90
19025;DHT22;9645;51.448;6.260;2023-03-23T04:30:36;11.60;99.90
19025;DHT22;9645;51.448;6.260;2023-03-23T04:33:04;12.50;99.90
19025;DHT22;9645;51.448;6.260;2023-03-23T04:35:31;12.50;99.90
19025;DHT22;9645;51.448;6.260;2023-03-23T04:37:59;12.50;99.90
19025;DHT22;9645;51.448;6.260;2023-03-23T04:40:26;12.50;99.90
19025;DHT22;9645;51.448;6.260;2023-03-23T04:42:53;12.50;99.90
19025;DHT22;9645;51.448;6.260;2023-03-23T04:45:24;12.40;99.90
19025;DHT22;9645;51.448;6.260;2023-03-23T04:47:52;12.40;99.90
19025;DHT22;9645;51.448;6.260;2023-03-23T04:50:24;12.50;99.90
19025;DHT22;9645;51.448;6.260;2023-03-23T04:52:51;12.50;99.90
19025;DHT22;9645;51.448;6.260;2023-03-23T04:55:20;12.40;99.90
19025;DHT22;9645;51.448;6.260;2023-03-23T04:57:47;12.60;99.90
19025;DHT22;9645;51.448;6.260;2023-03-23T05:00:15;12.50;99.90
19025;DHT22;9645;51.448;6.260;2023-03-23T05:02:44;12.50;99.90
19025;DHT22;9645;51.448;6.260;2023-03-23T05:05:14;12.40;99.90
19025;DHT22;9645;51.448;6.260;2023-03-23T05:07:42;12.40;99.90
19025;DHT22;9645;51.448;6.260;2023-03-23T05:10:10;12.40;99.90
19025;DHT22;9645;51.448;6.260;2023-03-23T05:12:38;12.40;99.90
19025;DHT22;9645;51.448;6.260;2023-03-23T05:15:06;12.40;99.90
19025;DHT22;9645;51.448;6.260;2023-03-23T05:17:34;12.40;99.90
19025;DHT22;9645;51.448;6.260;2023-03-23T05:20:04;12.40;99.90
19025;DHT22;9645;51.448;6.260;2023-03-23T05:22:34;12.40;99.90
19025;DHT22;9645;51.448;6.260;2023-03-23T05:25:02;12.40;99.90
19025;DHT22;9645;51.448;6.260;2023-03-23T05:27:29;12.30;99.90
19025;DHT22;9645;51.448;6.260;2023-03-23T05:29:58;12.30;99.90
19025;DHT22;9645;51.448;6.260;2023-03-23T05:32:26;12.30;99.90
19025;DHT22;9645;51.448;6.260;2023-03-23T05:34:56;12.40;99.90
19025;DHT22;9645;51.448;6.260;2023-03-23T05:37:26;12.50;99.90
19025;DHT22;9645;51.448;6.260;2023-03-23T05:39:54;12.40;99.90
19025;DHT22;9645;51.448;6.260;2023-03-23T05:42:21;12.40;99.90
19025;DHT22;9645;51.448;6.260;2023-03-23T05:44:49;12.40;99.90
19025;DHT22;9645;51.448;6.260;2023-03-23T05:47:16;12.40;99.90
19025;DHT22;9645;51.448;6.260;2023-03-23T05:49:43;12.40;99.90
19025;DHT22;9645;51.448;6.260;2023-03-23T05:52:11;12.40;99.90
19025;DHT22;9645;51.448;6.260;2023-03-23T05:54:40;12.50;99.90
19025;DHT22;9645;51.448;6.260;2023-03-23T05:57:07;12.40;99.90
19025;DHT22;9645;51.448;6.260;2023-03-23T05:59:34;12.40;99.90
19025;DHT22;9645;51.448;6.260;2023-03-23T06:02:01;12.40;99.90
19025;DHT22;9645;51.448;6.260;2023-03-23T06:04:28;12.50;99.90
19025;DHT22;9645;51.448;6.260;2023-03-23T06:06:55;12.50;99.90
19025;DHT22;9645;51.448;6.260;2023-03-23T06:09:22;12.50;99.90
19025;DHT22;9645;51.448;6.260;2023-03-23T06:11:52;12.50;99.90
19025;DHT22;9645;51.448;6.260;2023-03-23T06:14:19;12.50;99.90
19025;DHT22;9645;51.448;6.260;2023-03-23T06:16:47;12.60;99.90
19025;DHT22;9645;51.448;6.260;2023-03-23T06:19:14;12.60;99.90
19025;DHT22;9645;51.448;6.260;2023-03-23T06:21:46;12.60;99.90
19025;DHT22;9645;51.448;6.260;2023-03-23T06:24:12;12.60;99.90
19025;DHT22;9645;51.448;6.260;2023-03-23T06:26:40;12.60;99.90
19025;DHT22;9645;51.448;6.260;2023-03-23T06:29:11;12.60;99.90
19025;DHT22;9645;51.448;6.260;2023-03-23T06:31:39;12.60;99.90
19025;DHT22;9645;51.448;6.260;2023-03-23T06:34:07;12.60;99.90
19025;DHT22;9645;51.448;6.260;2023-03-23T06:36:35;12.60;99.90
19025;DHT22;9645;51.448;6.260;2023-03-23T06:39:04;12.70;99.90
19025;DHT22;9645;51.448;6.260;2023-03-23T06:41:31;12.70;99.90
19025;DHT22;9645;51.448;6.260;2023-03-23T06:43:58;12.70;99.90
19025;DHT22;9645;51.448;6.260;2023-03-23T06:46:28;12.80;99.90
19025;DHT22;9645;51.448;6.260;2023-03-23T06:48:55;12.80;99.90
19025;DHT22;9645;51.448;6.260;2023-03-23T06:51:22;12.80;99.90
19025;DHT22;9645;51.448;6.260;2023-03-23T06:53:49;12.80;99.90
19025;DHT22;9645;51.448;6.260;2023-03-23T06:56:16;12.80;99.90
19025;DHT22;9645;51.448;6.260;2023-03-23T06:58:44;12.80;99.90
19025;DHT22;9645;51.448;6.260;2023-03-23T07:01:12;12.80;99.90
19025;DHT22;9645;51.448;6.260;2023-03-23T07:03:44;12.90;99.90
19025;DHT22;9645;51.448;6.260;2023-03-23T07:06:11;12.90;99.90
19025;DHT22;9645;51.448;6.260;2023-03-23T07:08:39;12.90;99.90
19025;DHT22;9645;51.448;6.260;2023-03-23T07:11:06;12.90;99.90
19025;DHT22;9645;51.448;6.260;2023-03-23T07:13:33;12.90;99.90
19025;DHT22;9645;51.448;6.260;2023-03-23T07:16:03;12.90;99.90
19025;DHT22;9645;51.448;6.260;2023-03-23T07:18:31;12.90;99.90
19025;DHT22;9645;51.448;6.260;2023-03-23T07:21:00;13.00;99.90
19025;DHT22;9645;51.448;6.260;2023-03-23T07:23:29;13.00;99.90
19025;DHT22;9645;51.448;6.260;2023-03-23T07:25:56;13.00;99.90
19025;DHT22;9645;51.448;6.260;2023-03-23T07:28:23;13.00;99.90
19025;DHT22;9645;51.448;6.260;2023-03-23T07:30:51;13.00;99.90
19025;DHT22;9645;51.448;6.260;2023-03-23T07:33:18;13.00;99.90
19025;DHT22;9645;51.448;6.260;2023-03-23T07:35:45;13.00;99.90
19025;DHT22;9645;51.448;6.260;2023-03-23T07:38:17;12.90;99.90
19025;DHT22;9645;51.448;6.260;2023-03-23T07:40:45;12.90;99.90
19025;DHT22;9645;51.448;6.260;2023-03-23T07:43:13;12.90;99.90
19025;DHT22;9645;51.448;6.260;2023-03-23T07:45:40;12.90;99.90
19025;DHT22;9645;51.448;6.260;2023-03-23T07:48:07;12.90;99.90
19025;DHT22;9645;51.448;6.260;2023-03-23T07:50:34;12.90;99.90
19025;DHT22;9645;51.448;6.260;2023-03-23T07:53:02;11.70;99.90
19025;DHT22;9645;51.448;6.260;2023-03-23T07:55:31;12.40;99.90
19025;DHT22;9645;51.448;6.260;2023-03-23T07:57:59;12.90;99.90
19025;DHT22;9645;51.448;6.260;2023-03-23T08:00:26;13.30;99.90
19025;DHT22;9645;51.448;6.260;2023-03-23T08:02:54;12.80;99.90
19025;DHT22;9645;51.448;6.260;2023-03-23T08:05:22;12.80;99.90
19025;DHT22;9645;51.448;6.260;2023-03-23T08:07:52;12.80;99.90
19025;DHT22;9645;51.448;6.260;2023-03-23T08:10:20;12.90;99.90
19025;DHT22;9645;51.448;6.260;2023-03-23T08:12:52;12.90;99.90
19025;DHT22;9645;51.448;6.260;2023-03-23T08:15:21;13.00;99.90
19025;DHT22;9645;51.448;6.260;2023-03-23T08:17:48;13.10;99.90
19025;DHT22;9645;51.448;6.260;2023-03-23T08:20:16;13.10;99.90
19025;DHT22;9645;51.448;6.260;2023-03-23T08:22:48;13.10;99.90
19025;DHT22;9645;51.448;6.260;2023-03-23T08:25:15;13.20;99.90
19025;DHT22;9645;51.448;6.260;2023-03-23T08:27:43;13.20;99.90
19025;DHT22;9645;51.448;6.260;2023-03-23T08:30:14;13.30;99.90
19025;DHT22;9645;51.448;6.260;2023-03-23T08:32:42;13.50;99.90
19025;DHT22;9645;51.448;6.260;2023-03-23T08:35:10;13.50;99.90
19025;DHT22;9645;51.448;6.260;2023-03-23T08:37:38;13.40;99.90
19025;DHT22;9645;51.448;6.260;2023-03-23T08:40:08;13.20;99.90
19025;DHT22;9645;51.448;6.260;2023-03-23T08:42:35;13.10;99.90
19025;DHT22;9645;51.448;6.260;2023-03-23T08:45:04;13.00;99.90
19025;DHT22;9645;51.448;6.260;2023-03-23T08:47:34;12.90;99.90
19025;DHT22;9645;51.448;6.260;2023-03-23T08:50:01;12.50;99.90
19025;DHT22;9645;51.448;6.260;2023-03-23T08:52:29;11.90;99.90
19025;DHT22;9645;51.448;6.260;2023-03-23T08:54:56;11.30;99.90
19025;DHT22;9645;51.448;6.260;2023-03-23T08:57:23;11.00;99.90
19025;DHT22;9645;51.448;6.260;2023-03-23T08:59:50;10.70;99.90
19025;DHT22;9645;51.448;6.260;2023-03-23T09:02:20;10.70;99.90
19025;DHT22;9645;51.448;6.260;2023-03-23T09:04:50;10.80;99.90
19025;DHT22;9645;51.448;6.260;2023-03-23T09:07:18;10.90;99.90
19025;DHT22;9645;51.448;6.260;2023-03-23T09:09:46;11.10;99.90
19025;DHT22;9645;51.448;6.260;2023-03-23T09:12:13;11.20;99.90
19025;DHT22;9645;51.448;6.260;2023-03-23T09:14:40;11.30;99.90
19025;DHT22;9645;51.448;6.260;2023-03-23T09:17:07;11.30;99.90
19025;DHT22;9645;51.448;6.260;2023-03-23T09:19:34;11.40;99.90
19025;DHT22;9645;51.448;6.260;2023-03-23T09:22:03;11.40;99.90
19025;DHT22;9645;51.448;6.260;2023-03-23T09:24:30;11.30;99.90
19025;DHT22;9645;51.448;6.260;2023-03-23T09:26:57;11.20;99.90
19025;DHT22;9645;51.448;6.260;2023-03-23T09:29:25;11.10;99.90
19025;DHT22;9645;51.448;6.260;2023-03-23T09:31:52;11.00;99.90
19025;DHT22;9645;51.448;6.260;2023-03-23T09:34:19;11.00;99.90
19025;DHT22;9645;51.448;6.260;2023-03-23T09:36:47;11.30;99.90
19025;DHT22;9645;51.448;6.260;2023-03-23T09:39:16;11.30;99.90
19025;DHT22;9645;51.448;6.260;2023-03-23T09:42:02;11.50;99.90
19025;DHT22;9645;51.448;6.260;2023-03-23T09:44:41;11.50;99.90
19025;DHT22;9645;51.448;6.260;2023-03-23T09:47:16;11.30;99.90
19025;DHT22;9645;51.448;6.260;2023-03-23T09:49:50;11.30;99.90
19025;DHT22;9645;51.448;6.260;2023-03-23T09:52:18;11.20;99.90
19025;DHT22;9645;51.448;6.260;2023-03-23T09:54:48;11.10;99.90
19025;DHT22;9645;51.448;6.260;2023-03-23T09:57:22;11.10;99.90
19025;DHT22;9645;51.448;6.260;2023-03-23T09:59:54;11.10;99.90
19025;DHT22;9645;51.448;6.260;2023-03-23T10:02:27;11.00;99.90
19025;DHT22;9645;51.448;6.260;2023-03-23T10:04:58;11.20;99.90
19025;DHT22;9645;51.448;6.260;2023-03-23T10:07:29;11.30;99.90
19025;DHT22;9645;51.448;6.260;2023-03-23T10:10:00;11.40;99.90
19025;DHT22;9645;51.448;6.260;2023-03-23T10:12:32;11.50;99.90
19025;DHT22;9645;51.448;6.260;2023-03-23T10:15:13;11.70;99.90
19025;DHT22;9645;51.448;6.260;2023-03-23T10:17:45;11.80;99.90
19025;DHT22;9645;51.448;6.260;2023-03-23T10:20:32;11.80;99.90
19025;DHT22;9645;51.448;6.260;2023-03-23T10:23:11;11.70;99.90
19025;DHT22;9645;51.448;6.260;2023-03-23T10:25:43;11.70;99.90
19025;DHT22;9645;51.448;6.260;2023-03-23T10:28:16;11.70;99.90
19025;DHT22;9645;51.448;6.260;2023-03-23T10:30:46;12.00;99.90
19025;DHT22;9645;51.448;6.260;2023-03-23T10:33:18;12.60;99.90
19025;DHT22;9645;51.448;6.260;2023-03-23T10:35:51;13.00;99.90
19025;DHT22;9645;51.448;6.260;2023-03-23T10:38:23;13.20;99.90
19025;DHT22;9645;51.448;6.260;2023-03-23T10:40:55;13.20;99.90
19025;DHT22;9645;51.448;6.260;2023-03-23T10:43:24;13.10;99.90
19025;DHT22;9645;51.448;6.260;2023-03-23T10:45:57;12.80;99.90
19025;DHT22;9645;51.448;6.260;2023-03-23T10:48:29;12.70;99.90
19025;DHT22;9645;51.448;6.260;2023-03-23T10:51:00;12.50;99.90
19025;DHT22;9645;51.448;6.260;2023-03-23T10:53:32;12.30;99.90
19025;DHT22;9645;51.448;6.260;2023-03-23T10:56:01;12.00;99.90
19025;DHT22;9645;51.448;6.260;2023-03-23T10:58:30;12.00;99.90
19025;DHT22;9645;51.448;6.260;2023-03-23T11:00:58;11.50;99.90
19025;DHT22;9645;51.448;6.260;2023-03-23T11:03:34;11.90;99.90
19025;DHT22;9645;51.448;6.260;2023-03-23T11:06:03;11.80;99.90
19025;DHT22;9645;51.448;6.260;2023-03-23T11:08:35;11.80;99.90
19025;DHT22;9645;51.448;6.260;2023-03-23T11:11:11;11.90;99.90
19025;DHT22;9645;51.448;6.260;2023-03-23T11:13:41;12.00;99.90
19025;DHT22;9645;51.448;6.260;2023-03-23T11:16:10;12.20;99.90
19025;DHT22;9645;51.448;6.260;2023-03-23T11:18:41;12.50;99.90
19025;DHT22;9645;51.448;6.260;2023-03-23T11:21:11;12.60;99.90
19025;DHT22;9645;51.448;6.260;2023-03-23T11:23:40;12.90;99.90
19025;DHT22;9645;51.448;6.260;2023-03-23T11:26:16;13.60;99.90
19025;DHT22;9645;51.448;6.260;2023-03-23T11:28:46;14.20;99.90
19025;DHT22;9645;51.448;6.260;2023-03-23T11:31:16;14.20;99.90
19025;DHT22;9645;51.448;6.260;2023-03-23T11:33:52;14.40;99.90
19025;DHT22;9645;51.448;6.260;2023-03-23T11:36:19;14.50;99.90
19025;DHT22;9645;51.448;6.260;2023-03-23T11:38:53;14.60;99.90
19025;DHT22;9645;51.448;6.260;2023-03-23T11:41:25;14.30;99.90
19025;DHT22;9645;51.448;6.260;2023-03-23T11:43:55;14.10;99.90
19025;DHT22;9645;51.448;6.260;2023-03-23T11:46:30;14.00;99.90
19025;DHT22;9645;51.448;6.260;2023-03-23T11:49:01;13.90;99.90
19025;DHT22;9645;51.448;6.260;2023-03-23T11:51:34;13.70;99.90
19025;DHT22;9645;51.448;6.260;2023-03-23T11:54:09;13.40;99.90
19025;DHT22;9645;51.448;6.260;2023-03-23T11:56:42;13.20;99.90
19025;DHT22;9645;51.448;6.260;2023-03-23T11:59:12;13.10;99.90
19025;DHT22;9645;51.448;6.260;2023-03-23T12:01:53;13.00;99.90
19025;DHT22;9645;51.448;6.260;2023-03-23T12:04:39;12.90;99.90
19025;DHT22;9645;51.448;6.260;2023-03-23T12:07:32;12.90;99.90
19025;DHT22;9645;51.448;6.260;2023-03-23T12:12:54;13.20;99.90
19025;DHT22;9645;51.448;6.260;2023-03-23T12:15:29;13.30;99.90
19025;DHT22;9645;51.448;6.260;2023-03-23T12:18:03;13.30;99.90
19025;DHT22;9645;51.448;6.260;2023-03-23T12:20:40;13.30;99.90
19025;DHT22;9645;51.448;6.260;2023-03-23T12:23:23;13.50;99.90
19025;DHT22;9645;51.448;6.260;2023-03-23T12:26:24;13.70;99.90
19025;DHT22;9645;51.448;6.260;2023-03-23T12:32:29;15.20;99.90
19025;DHT22;9645;51.448;6.260;2023-03-23T12:35:05;16.80;99.90
19025;DHT22;9645;51.448;6.260;2023-03-23T12:37:46;17.10;99.90
19025;DHT22;9645;51.448;6.260;2023-03-23T12:40:36;17.30;99.90
19025;DHT22;9645;51.448;6.260;2023-03-23T12:43:10;17.40;99.90
19025;DHT22;9645;51.448;6.260;2023-03-23T12:45:55;17.50;99.90
19025;DHT22;9645;51.448;6.260;2023-03-23T12:48:29;17.50;99.90
19025;DHT22;9645;51.448;6.260;2023-03-23T12:51:09;18.30;99.90
19025;DHT22;9645;51.448;6.260;2023-03-23T12:53:42;18.70;99.90
19025;DHT22;9645;51.448;6.260;2023-03-23T12:56:16;18.40;99.90
19025;DHT22;9645;51.448;6.260;2023-03-23T12:58:46;17.70;99.90
19025;DHT22;9645;51.448;6.260;2023-03-23T13:01:19;17.50;99.90
19025;DHT22;9645;51.448;6.260;2023-03-23T13:03:55;17.40;99.90
19025;DHT22;9645;51.448;6.260;2023-03-23T13:06:29;17.60;99.90
19025;DHT22;9645;51.448;6.260;2023-03-23T13:09:02;17.90;99.90
19025;DHT22;9645;51.448;6.260;2023-03-23T13:11:33;18.00;99.90
19025;DHT22;9645;51.448;6.260;2023-03-23T13:14:10;17.50;99.90
19025;DHT22;9645;51.448;6.260;2023-03-23T13:16:45;16.80;99.90
19025;DHT22;9645;51.448;6.260;2023-03-23T13:19:20;16.40;99.90
19025;DHT22;9645;51.448;6.260;2023-03-23T13:21:55;16.00;99.90
19025;DHT22;9645;51.448;6.260;2023-03-23T13:24:26;15.70;99.90
19025;DHT22;9645;51.448;6.260;2023-03-23T13:26:54;15.60;99.90
19025;DHT22;9645;51.448;6.260;2023-03-23T13:29:24;15.60;99.90
19025;DHT22;9645;51.448;6.260;2023-03-23T13:32:05;15.70;99.90
19025;DHT22;9645;51.448;6.260;2023-03-23T13:34:35;16.00;99.90
19025;DHT22;9645;51.448;6.260;2023-03-23T13:37:05;15.80;99.90
19025;DHT22;9645;51.448;6.260;2023-03-23T13:39:35;15.80;99.90
19025;DHT22;9645;51.448;6.260;2023-03-23T13:42:05;15.80;99.90
19025;DHT22;9645;51.448;6.260;2023-03-23T13:44:56;16.10;99.90
19025;DHT22;9645;51.448;6.260;2023-03-23T13:47:37;16.00;99.90
19025;DHT22;9645;51.448;6.260;2023-03-23T13:50:11;15.90;99.90
19025;DHT22;9645;51.448;6.260;2023-03-23T13:52:49;16.00;99.90
19025;DHT22;9645;51.448;6.260;2023-03-23T13:55:21;15.90;99.90
19025;DHT22;9645;51.448;6.260;2023-03-23T13:57:50;15.90;99.90
19025;DHT22;9645;51.448;6.260;2023-03-23T14:00:37;16.10;99.90
19025;DHT22;9645;51.448;6.260;2023-03-23T14:03:13;16.20;99.90
19025;DHT22;9645;51.448;6.260;2023-03-23T14:05:43;16.30;99.90
19025;DHT22;9645;51.448;6.260;2023-03-23T14:08:21;16.50;99.90
19025;DHT22;9645;51.448;6.260;2023-03-23T14:10:53;16.90;99.90
19025;DHT22;9645;51.448;6.260;2023-03-23T14:13:29;16.60;99.90
19025;DHT22;9645;51.448;6.260;2023-03-23T14:15:59;16.20;99.90
19025;DHT22;9645;51.448;6.260;2023-03-23T14:18:31;16.10;99.90
19025;DHT22;9645;51.448;6.260;2023-03-23T14:21:00;16.10;99.90
19025;DHT22;9645;51.448;6.260;2023-03-23T14:23:31;16.70;99.90
19025;DHT22;9645;51.448;6.260;2023-03-23T14:26:00;16.60;99.90
19025;DHT22;9645;51.448;6.260;2023-03-23T14:28:36;16.50;99.90
19025;DHT22;9645;51.448;6.260;2023-03-23T14:31:04;16.60;99.90
19025;DHT22;9645;51.448;6.260;2023-03-23T14:33:31;16.60;99.90
19025;DHT22;9645;51.448;6.260;2023-03-23T14:36:00;16.80;99.90
19025;DHT22;9645;51.448;6.260;2023-03-23T14:38:27;16.80;99.90
19025;DHT22;9645;51.448;6.260;2023-03-23T14:41:01;16.70;99.90
19025;DHT22;9645;51.448;6.260;2023-03-23T14:43:29;16.80;99.90
19025;DHT22;9645;51.448;6.260;2023-03-23T14:45:59;17.00;99.90
19025;DHT22;9645;51.448;6.260;2023-03-23T14:48:26;16.80;99.90
19025;DHT22;9645;51.448;6.260;2023-03-23T14:50:57;16.80;99.90
19025;DHT22;9645;51.448;6.260;2023-03-23T14:53:30;16.50;99.90
19025;DHT22;9645;51.448;6.260;2023-03-23T14:56:00;16.40;99.90
19025;DHT22;9645;51.448;6.260;2023-03-23T14:58:30;16.30;99.90
19025;DHT22;9645;51.448;6.260;2023-03-23T15:00:59;16.20;99.90
19025;DHT22;9645;51.448;6.260;2023-03-23T15:03:28;16.20;99.90
19025;DHT22;9645;51.448;6.260;2023-03-23T15:06:01;16.10;99.90
19025;DHT22;9645;51.448;6.260;2023-03-23T15:08:33;16.20;99.90
19025;DHT22;9645;51.448;6.260;2023-03-23T15:11:06;16.20;99.90
19025;DHT22;9645;51.448;6.260;2023-03-23T15:13:35;16.20;99.90
19025;DHT22;9645;51.448;6.260;2023-03-23T15:16:05;16.40;99.90
19025;DHT22;9645;51.448;6.260;2023-03-23T15:18:35;16.30;99.90
19025;DHT22;9645;51.448;6.260;2023-03-23T15:21:11;16.30;99.90
19025;DHT22;9645;51.448;6.260;2023-03-23T15:23:43;16.30;99.90
19025;DHT22;9645;51.448;6.260;2023-03-23T15:29:15;16.30;99.90
19025;DHT22;9645;51.448;6.260;2023-03-23T15:31:44;16.20;99.90
19025;DHT22;9645;51.448;6.260;2023-03-23T15:34:25;16.00;99.90
19025;DHT22;9645;51.448;6.260;2023-03-23T15:36:56;16.00;99.90
19025;DHT22;9645;51.448;6.260;2023-03-23T15:39:25;15.90;99.90
19025;DHT22;9645;51.448;6.260;2023-03-23T15:41:53;15.80;99.90
19025;DHT22;9645;51.448;6.260;2023-03-23T15:44:26;15.70;99.90
19025;DHT22;9645;51.448;6.260;2023-03-23T15:47:04;15.80;99.90
19025;DHT22;9645;51.448;6.260;2023-03-23T15:49:31;15.70;99.90
19025;DHT22;9645;51.448;6.260;2023-03-23T15:51:58;15.70;99.90
19025;DHT22;9645;51.448;6.260;2023-03-23T15:54:30;15.80;99.90
19025;DHT22;9645;51.448;6.260;2023-03-23T15:56:58;15.80;99.90
19025;DHT22;9645;51.448;6.260;2023-03-23T15:59:25;15.60;99.90
19025;DHT22;9645;51.448;6.260;2023-03-23T16:01:51;15.50;99.90
19025;DHT22;9645;51.448;6.260;2023-03-23T16:04:19;15.40;99.90
19025;DHT22;9645;51.448;6.260;2023-03-23T16:06:47;15.40;99.90
19025;DHT22;9645;51.448;6.260;2023-03-23T16:09:15;15.30;99.90
19025;DHT22;9645;51.448;6.260;2023-03-23T16:11:44;15.30;99.90
19025;DHT22;9645;51.448;6.260;2023-03-23T16:14:11;15.40;99.90
19025;DHT22;9645;51.448;6.260;2023-03-23T16:16:41;15.50;99.90
19025;DHT22;9645;51.448;6.260;2023-03-23T16:19:11;15.60;99.90
19025;DHT22;9645;51.448;6.260;2023-03-23T16:21:39;15.80;99.90
19025;DHT22;9645;51.448;6.260;2023-03-23T16:24:06;15.70;99.90